AirNav   Air Wisconsin pilot careers
 
 996 users online  

6Y9 Prickett-Grooms Field Airport
Sidnaw, Michigan, USA


FAA INFORMATION EFFECTIVE 04 JANUARY 2018

Location

FAA Identifier: 6Y9
Lat/Long: 46-30-31.1500N / 088-42-21.0500W
46-30.519167N / 088-42.350833W
46.5086528 / -88.7058472
(estimated)
Elevation: 1372 ft. / 418.2 m (surveyed)
Variation: 02W (1985)
From city: 1 mile NE of SIDNAW, MI
Time zone: UTC -5 (UTC -4 during Daylight Saving Time)
Zip code: 49970

Airport Operations

Airport use: Open to the public
Activation date: 04/1940
Control tower: no
ARTCC: MINNEAPOLIS CENTER
FSS: GREEN BAY FLIGHT SERVICE STATION
NOTAMs facility: GRB (NOTAM-D service available)
Attendance: UNATNDD
Wind indicator: yes
Segmented circle: no

Airport Communications

CTAF: 122.9

Nearby radio navigation aids

NDB name  Hdg/Dist  Freq  Var  ID
WATERSMEET063/27.140702WRXW .-. -..- .--

Airport Services

Parking: tiedowns
Airframe service: NONE
Powerplant service: NONE
Bottled oxygen: NONE
Bulk oxygen: NONE

Runway Information

Runway 10/28

Dimensions: 2600 x 100 ft. / 792 x 30 m
Surface: turf, in good condition
SOFT WHEN WET; CALL 906-355-2257 TO VFY COND.
Runway edge markings: 10/28 MKD WITH 3 FT YELLOW CONES.
Gradient: E
RUNWAY 10  RUNWAY 28
Latitude: 46-30.553333N46-30.485000N
Longitude: 088-42.656667W088-42.045000W
Elevation: 1362.0 ft.1377.0 ft.
Gradient: 0.6% UP
Traffic pattern: leftleft
Displaced threshold: 400 ft.400 ft.
Runway end identifier lights: nono
Obstructions: 56 ft. trees, 732 ft. from runway, 75 ft. left of centerline, 13:1 slope to clear
APCH SLP TO THE DSPCD THLD IS 20:1.
20 ft. trees, 60 ft. both sides of centerline
APCH SLOPE TO THE DSPCD THLD IS 20:1.

Airport Ownership and Management from official FAA records

Ownership: Privately-owned
Owner: SHCAHA
7370 BROADMOOR AVE. S.E.
CALEDONIA, MI 49316
Phone 616-554-8860
SOUTHERN HOUGHTON COUNTY AIRPORT & HERITAGE ASSOCIATION
Manager: BRAD FREDERICK
7370 BROADMOOR AVE. S.E.
CALEDONIA, MI 49316
Phone (248) 761-5615
AMGR LIVES ADJACENT TO THE AIRPORT.

Airport Operational Statistics

Aircraft operations: 150/year *
100% transient general aviation
* for 12-month period ending 31 December 2015

Additional Remarks

RYS NOT PLOWED. ARPT CLSD NOV-APR & WHEN SNOW COVERED.
CAMPING & CABINS ADJACENT, PH# 906-355-2257.
BUILDING ACCESS: 1200

Instrument Procedures

There are no published instrument procedures at 6Y9.

Some nearby airports with instrument procedures:

KLNL - Kings Land O' Lakes Airport (30 nm SW)
KOGM - Ontonagon County Airport - Schuster Field (34 nm NW)
KCMX - Houghton County Memorial Airport (41 nm N)
KEGV - Eagle River Union Airport (42 nm SW)
KIMT - Ford Airport (48 nm SE)
 
Loc | Ops | Rwys | IFR | FBO | Links
Com | Nav | Svcs | Stats | Notes


 
Area around 6Y9 (Prickett-Grooms Field Airport)
 
Road maps at: MapQuest Bing Google
 
Aerial photo
WARNING: Photo may not be current or correct
Aerial photo of 6Y9 (Prickett-Grooms Field Airport)
from the NW

Do you have a better or more recent aerial photo of Prickett-Grooms Field Airport that you would like to share? If so, please send us your photo.

 
Sectional chart

 
Airport distance calculator
Flying to Prickett-Grooms Field Airport? Find the distance to fly.

From to 6Y9

Sunrise and sunset
Times for 21-Jan-2018
 Local
(UTC-5)
 Zulu
(UTC)
Morning civil twilight07:5812:58
Sunrise08:3113:31
Sunset17:4122:41
Evening civil twilight18:1523:15

Current date and time
Zulu (UTC)  21-Jan-2018 17:26:39
Local (UTC-5)  21-Jan-2018 12:26:39
 
METAR
KLNL 
30nm SW 
211715Z AUTO 00000KT 7SM SCT090 SCT120 00/00 A2997 RMK AO2 T00030003
KCMX 
41nm N 
211703Z AUTO 31005KT 1 3/4SM BR OVC002 00/M02 A2998 RMK AO2 T00001017
KEGV 
42nm SW 
211715Z AUTO 00000KT 7SM CLR 00/00 A2995 RMK AO2 T10011003
KIMT 
48nm SE 
211654Z AUTO 36003KT 10SM BKN095 OVC110 02/M01 A2996 RMK AO2 SLP160 T00221011
TAF
KCMX 
41nm N 
211135Z 2112/2212 00000KT 6SM BR BKN200 FM211300 00000KT 5SM BR BKN150 FM220200 05009KT 1SM BR OVC003 FM220800 07011KT 2SM BR OVC008 FM221100 06010KT 1 1/2SM BR OVC008
NOTAMs
Click for the latest NOTAMs
NOTAMs are issued by the DoD/FAA and will open in a separate window not controlled by AirNav.

 

 
 

Would you like to see your business listed on this page?

 If your business provides an interesting product or service to pilots, flight crews, aircraft, or users of the Prickett-Grooms Field Airport, you should consider listing it here.  To start the listing process, click on the button below
 
Add a business
 

Other Pages about Prickett-Grooms Field Airport

6y9.sidnaw.org
Page from the Michigan Airport Directory (PDF)
 
Update a link
 
Copyright © AirNav, LLC. All rights reserved. Privacy Policy  Contact